createdAt,value
2019-03-29T00:01:37.579Z,7.68
2019-03-29T00:06:40.268Z,7.53
2019-03-29T00:11:42.972Z,7.50
2019-03-29T00:16:45.816Z,7.62
2019-03-29T00:21:48.401Z,7.52
2019-03-29T00:26:54.521Z,7.41
2019-03-29T00:31:57.046Z,7.42
2019-03-29T00:37:01.138Z,7.43
2019-03-29T00:42:06.988Z,7.22
2019-03-29T00:47:09.609Z,7.26
2019-03-29T00:52:12.204Z,7.20
2019-03-29T00:57:14.863Z,7.04
2019-03-29T01:02:19.062Z,7.08
2019-03-29T01:07:22.136Z,6.90
2019-03-29T01:12:26.199Z,6.99
2019-03-29T01:17:28.865Z,6.69
2019-03-29T01:22:32.016Z,6.78
2019-03-29T01:27:35.116Z,6.75
2019-03-29T01:32:37.738Z,6.82
2019-03-29T01:37:40.332Z,6.70
2019-03-29T01:42:45.032Z,6.74
2019-03-29T01:47:47.930Z,6.64
2019-03-29T01:52:50.480Z,6.65
2019-03-29T01:57:53.032Z,6.69
2019-03-29T02:02:55.586Z,6.68
2019-03-29T02:07:58.261Z,6.52
2019-03-29T02:13:03.160Z,6.44
2019-03-29T02:18:05.827Z,6.41
2019-03-29T02:23:08.460Z,6.50
2019-03-29T02:28:13.824Z,6.37
2019-03-29T02:33:16.435Z,6.41
2019-03-29T02:38:19.003Z,6.30
2019-03-29T02:43:23.870Z,6.29
2019-03-29T02:48:26.417Z,6.20
2019-03-29T02:53:31.385Z,6.11
2019-03-29T02:58:33.913Z,6.20
2019-03-29T03:03:39.527Z,6.21
2019-03-29T03:08:42.334Z,6.20
2019-03-29T03:13:46.169Z,5.94
2019-03-29T03:18:52.603Z,5.70
2019-03-29T03:23:55.254Z,5.98
2019-03-29T03:28:59.320Z,5.87
2019-03-29T03:34:02.511Z,5.91
2019-03-29T03:39:06.941Z,5.89
2019-03-29T03:44:09.536Z,5.85
2019-03-29T03:49:12.224Z,6.00
2019-03-29T03:54:16.413Z,5.92
2019-03-29T03:59:19.890Z,5.88
2019-03-29T04:04:26.213Z,5.72
2019-03-29T04:09:48.454Z,5.76
2019-03-29T04:14:36.272Z,5.79
2019-03-29T04:19:41.515Z,5.86
2019-03-29T04:24:44.149Z,5.84
2019-03-29T04:29:46.718Z,5.84
2019-03-29T04:34:51.513Z,5.71
2019-03-29T04:40:06.990Z,5.43
2019-03-29T04:44:59.947Z,5.60
2019-03-29T04:50:02.661Z,5.72
2019-03-29T04:55:05.625Z,5.67
2019-03-29T05:00:08.593Z,5.51
2019-03-29T05:05:12.726Z,5.48
2019-03-29T05:10:21.628Z,5.53
2019-03-29T05:15:20.953Z,5.55
2019-03-29T05:20:25.914Z,5.60
2019-03-29T05:25:28.576Z,5.56
2019-03-29T05:30:31.111Z,5.54
2019-03-29T05:35:33.776Z,5.62
2019-03-29T05:40:36.384Z,5.66
2019-03-29T05:45:41.624Z,5.64
2019-03-29T05:50:44.164Z,5.65
2019-03-29T05:55:48.468Z,5.87
2019-03-29T06:00:51.312Z,6.13
2019-03-29T06:05:54.067Z,6.19
2019-03-29T06:10:56.629Z,6.28
2019-03-29T06:15:59.446Z,6.39
2019-03-29T06:21:03.935Z,6.60
2019-03-29T06:26:06.492Z,6.87
2019-03-29T06:31:11.714Z,7.05
2019-03-29T06:36:16.003Z,7.27
2019-03-29T06:41:18.643Z,7.24
2019-03-29T06:46:21.440Z,7.66
2019-03-29T06:51:27.020Z,7.94
2019-03-29T06:56:29.919Z,8.25
2019-03-29T07:01:32.665Z,8.41
2019-03-29T07:06:40.199Z,8.61
2019-03-29T07:11:43.976Z,8.48
2019-03-29T07:16:46.781Z,8.57
2019-03-29T07:21:49.315Z,9.25
2019-03-29T07:26:52.203Z,9.41
2019-03-29T07:31:54.854Z,9.59
2019-03-29T07:36:57.670Z,9.71
2019-03-29T07:42:00.560Z,10.43
2019-03-29T07:47:09.142Z,10.35
2019-03-29T07:52:11.768Z,10.42
2019-03-29T07:57:21.158Z,10.91
2019-03-29T08:02:23.727Z,11.09
2019-03-29T08:07:27.715Z,11.17
2019-03-29T08:12:31.064Z,11.30
2019-03-29T08:17:35.634Z,11.57
2019-03-29T08:22:38.202Z,11.68
2019-03-29T08:27:42.152Z,11.89
2019-03-29T08:32:49.047Z,12.19
2019-03-29T08:37:52.259Z,12.13
2019-03-29T08:42:55.276Z,12.39
2019-03-29T08:47:59.253Z,12.35
2019-03-29T08:53:01.924Z,12.62
2019-03-29T08:58:04.660Z,12.77
2019-03-29T09:03:07.645Z,12.89
2019-03-29T09:08:15.265Z,12.98
2019-03-29T09:13:21.409Z,12.98
2019-03-29T09:18:26.107Z,13.21
2019-03-29T09:23:34.970Z,13.21
2019-03-29T09:28:39.801Z,13.42
2019-03-29T09:33:46.391Z,13.31
2019-03-29T09:38:50.029Z,13.57
2019-03-29T09:43:59.964Z,13.63
2019-03-29T09:49:08.656Z,13.82
2019-03-29T09:54:14.371Z,13.76
2019-03-29T09:59:33.418Z,13.77
2019-03-29T10:04:52.198Z,14.02
2019-03-29T10:10:03.240Z,14.09
2019-03-29T10:15:13.416Z,14.26
2019-03-29T10:20:18.308Z,14.27
2019-03-29T10:25:21.742Z,14.29
2019-03-29T10:30:38.274Z,14.28
2019-03-29T10:35:51.634Z,14.56
2019-03-29T10:40:47.030Z,14.45
2019-03-29T10:45:51.992Z,14.61
2019-03-29T10:50:54.534Z,14.61
2019-03-29T10:55:57.348Z,14.72
2019-03-29T11:00:59.893Z,14.64
2019-03-29T11:19:19.050Z,15.07
2019-03-29T11:24:22.123Z,15.10
2019-03-29T11:33:34.397Z,14.03
2019-03-29T11:38:36.980Z,14.88
2019-03-29T11:43:39.658Z,14.92
2019-03-29T11:48:44.072Z,15.14
2019-03-29T11:53:50.847Z,15.48
2019-03-29T11:58:52.261Z,14.99
2019-03-29T12:03:55.046Z,15.37
2019-03-29T12:08:57.627Z,15.37
2019-03-29T12:14:00.458Z,15.41
2019-03-29T12:37:43.988Z,14.52
2019-03-29T12:42:46.651Z,15.60
2019-03-29T12:51:33.864Z,15.35
2019-03-29T12:56:36.705Z,15.53
2019-03-29T13:01:40.841Z,15.80
2019-03-29T13:06:43.381Z,15.55
2019-03-29T13:11:46.033Z,15.57
2019-03-29T13:16:48.579Z,15.96
2019-03-29T13:21:51.159Z,15.88
2019-03-29T13:26:54.395Z,15.60
2019-03-29T13:31:57.342Z,16.30
2019-03-29T13:37:01.692Z,15.94
2019-03-29T13:42:04.901Z,16.22
2019-03-29T13:47:07.447Z,16.00
2019-03-29T13:52:14.237Z,16.03
2019-03-29T13:57:16.799Z,15.96
2019-03-29T14:02:19.688Z,16.05
2019-03-29T14:07:22.285Z,16.06
2019-03-29T14:12:25.226Z,15.99
2019-03-29T14:17:27.781Z,15.92
2019-03-29T14:22:30.668Z,16.28
2019-03-29T14:27:33.248Z,16.16
2019-03-29T14:32:36.070Z,16.11
2019-03-29T14:37:38.625Z,15.94
2019-03-29T14:42:41.443Z,16.24
2019-03-29T14:47:44.257Z,16.07
2019-03-29T14:52:49.497Z,16.31
2019-03-29T14:57:52.053Z,16.24
2019-03-29T15:02:54.803Z,15.96
2019-03-29T15:07:59.867Z,16.17
2019-03-29T15:13:02.435Z,16.16
2019-03-29T15:18:05.050Z,16.43
2019-03-29T15:23:07.736Z,16.44
2019-03-29T15:28:10.389Z,16.32
2019-03-29T15:33:19.195Z,15.97
2019-03-29T15:38:21.837Z,16.28
2019-03-29T15:43:24.606Z,16.08
2019-03-29T15:48:27.198Z,16.05
2019-03-29T15:53:32.204Z,16.21
2019-03-29T15:58:34.755Z,15.92
2019-03-29T16:03:38.871Z,15.81
2019-03-29T16:08:41.432Z,15.88
2019-03-29T16:13:46.796Z,15.81
2019-03-29T16:18:49.338Z,16.00
2019-03-29T16:23:52.014Z,16.06
2019-03-29T16:28:54.616Z,15.83
2019-03-29T16:33:57.231Z,16.15
2019-03-29T16:38:59.787Z,15.76
2019-03-29T16:44:05.495Z,15.79
2019-03-29T16:49:08.088Z,15.92
2019-03-29T16:54:10.633Z,15.72
2019-03-29T16:59:13.241Z,15.73
2019-03-29T17:04:15.834Z,15.63
2019-03-29T17:09:18.479Z,15.42
2019-03-29T17:14:21.032Z,15.45
2019-03-29T17:19:23.991Z,15.56
2019-03-29T17:24:26.525Z,15.17
2019-03-29T17:29:31.893Z,15.03
2019-03-29T17:34:34.454Z,14.93
2019-03-29T17:39:37.103Z,14.93
2019-03-29T17:44:40.875Z,14.79
2019-03-29T17:49:43.429Z,15.17
2019-03-29T17:54:48.707Z,15.29
2019-03-29T17:59:51.285Z,14.72
2019-03-29T18:04:53.878Z,14.37
2019-03-29T18:09:56.433Z,14.31
2019-03-29T18:15:00.425Z,14.22
2019-03-29T18:20:03.401Z,14.03
2019-03-29T18:25:06.124Z,13.94
2019-03-29T18:30:09.525Z,13.81
2019-03-29T18:35:12.202Z,13.70
2019-03-29T18:40:24.549Z,13.63
2019-03-29T18:45:27.170Z,13.41
2019-03-29T18:50:29.733Z,13.41
2019-03-29T18:55:32.315Z,13.27
2019-03-29T19:00:35.541Z,13.11
2019-03-29T19:05:38.132Z,13.00
2019-03-29T19:10:43.676Z,12.83
2019-03-29T19:15:46.255Z,12.77
2019-03-29T19:20:51.493Z,12.63
2019-03-29T19:25:56.850Z,12.70
2019-03-29T19:30:59.459Z,12.40
2019-03-29T19:36:02.333Z,12.50
2019-03-29T19:41:05.236Z,12.14
2019-03-29T19:46:09.257Z,12.14
2019-03-29T19:51:11.773Z,12.17
2019-03-29T19:56:16.331Z,12.07
2019-03-29T20:01:19.026Z,12.11
2019-03-29T20:06:21.673Z,11.96
2019-03-29T20:11:24.431Z,11.92
2019-03-29T20:16:27.121Z,11.79
2019-03-29T20:21:29.922Z,11.83
2019-03-29T20:26:32.525Z,11.74
2019-03-29T20:31:35.120Z,11.53
2019-03-29T20:36:37.683Z,11.53
2019-03-29T20:41:40.431Z,11.34
2019-03-29T20:46:43.043Z,11.39
2019-03-29T20:51:45.642Z,11.35
2019-03-29T20:56:48.457Z,11.16
2019-03-29T21:01:53.037Z,11.28
2019-03-29T21:06:55.614Z,11.28
2019-03-29T21:11:58.353Z,11.13
2019-03-29T21:17:02.337Z,11.23
2019-03-29T21:22:04.913Z,11.13
2019-03-29T21:27:07.607Z,10.95
2019-03-29T21:32:13.170Z,10.90
2019-03-29T21:37:15.727Z,10.87
2019-03-29T21:42:18.575Z,10.69
2019-03-29T21:47:21.129Z,10.71
2019-03-29T21:52:23.694Z,10.78
2019-03-29T21:57:29.272Z,10.81
2019-03-29T22:02:33.220Z,10.61
2019-03-29T22:07:35.798Z,10.46
2019-03-29T22:12:38.457Z,10.48
2019-03-29T22:17:41.367Z,10.53
2019-03-29T22:22:45.396Z,10.49
2019-03-29T22:27:47.950Z,10.39
2019-03-29T22:32:50.594Z,10.34
2019-03-29T22:37:53.135Z,10.41
2019-03-29T22:42:55.784Z,10.08
2019-03-29T22:47:59.482Z,10.18
2019-03-29T22:53:02.459Z,10.33
2019-03-29T22:58:05.036Z,9.83
2019-03-29T23:03:08.354Z,9.89
2019-03-29T23:08:10.896Z,10.04
2019-03-29T23:13:16.461Z,9.71
2019-03-29T23:18:21.780Z,9.65
2019-03-29T23:23:24.324Z,9.84
2019-03-29T23:28:26.867Z,9.80
2019-03-29T23:33:29.740Z,9.70
2019-03-29T23:38:32.367Z,9.48
2019-03-29T23:43:39.790Z,9.43
2019-03-29T23:48:45.484Z,9.34
2019-03-29T23:53:48.018Z,9.34
2019-03-29T23:58:50.687Z,9.32
